Time;durP1;ratioP1;P1;durP2;ratioP2;P2;SDS_P1;SDS_P2;PMS_P1;PMS_P2;Temp;Humidity;BMP_temperature;BMP_pressure;BME280_temperature;BME280_humidity;BME280_pressure;Samples;Min_cycle;Max_cycle;Signal;HPM_P1;HPM_P2
2021/07/07 06:39:46;;;;;;;;;;;18.10;99.90;;;;;;5075442;28;19925;-86
2021/07/07 06:42:12;;;;;;;;;;;18.20;99.90;;;;;;5072963;28;19913;-85
2021/07/07 06:44:37;;;;;;;;;;;18.30;99.90;;;;;;5073103;28;19909;-87
2021/07/07 06:47:04;;;;;;;;;;;18.30;99.90;;;;;;5076052;28;19935;-86
2021/07/07 06:49:29;;;;;;;1.63;1.27;;;18.50;99.90;;;;;;5076026;28;19999;-86
2021/07/07 06:51:55;;;;;;;2.42;1.55;;;18.50;99.90;;;;;;5063248;28;20103;-86
2021/07/07 06:54:21;;;;;;;4.13;1.70;;;18.40;99.90;;;;;;5065663;28;20479;-87
2021/07/07 06:56:46;;;;;;;1.90;1.50;;;18.30;99.90;;;;;;5060638;28;20476;-87
2021/07/07 06:59:12;;;;;;;2.55;1.13;;;18.30;99.90;;;;;;5055947;28;20036;-86
2021/07/07 07:01:37;;;;;;;4.82;1.30;;;18.40;99.90;;;;;;5056768;28;20021;-86
2021/07/07 07:04:03;;;;;;;1.92;1.33;;;18.80;99.90;;;;;;5058392;28;20029;-86
2021/07/07 07:06:29;;;;;;;;;;;19.10;99.90;;;;;;5057490;28;20064;-86
2021/07/07 07:08:54;;;;;;;;;;;19.60;99.90;;;;;;5056365;28;19908;-87
2021/07/07 07:11:20;;;;;;;;;;;19.90;99.90;;;;;;5056437;28;19905;-86
2021/07/07 07:13:46;;;;;;;;;;;20.60;99.90;;;;;;5055106;28;19912;-87
2021/07/07 07:16:12;;;;;;;;;;;20.80;99.90;;;;;;5055689;28;19905;-87
2021/07/07 07:18:38;;;;;;;;;;;20.60;99.90;;;;;;5055676;28;19905;-86
2021/07/07 07:21:03;;;;;;;;;;;20.60;99.90;;;;;;5055725;28;19912;-86
2021/07/07 07:23:29;;;;;;;;;;;20.90;99.90;;;;;;5056144;28;19912;-86
2021/07/07 07:25:54;;;;;;;;;;;21.50;99.90;;;;;;5055658;28;19999;-87
2021/07/07 07:28:20;;;;;;;;;;;21.80;99.90;;;;;;5055893;28;19908;-86
2021/07/07 07:30:46;;;;;;;1.45;1.23;;;21.90;99.90;;;;;;5055116;28;20287;-86
2021/07/07 07:33:11;;;;;;;0.77;0.68;;;22.30;99.90;;;;;;5071934;28;20029;-85
2021/07/07 07:35:37;;;;;;;1.77;1.27;;;22.40;99.90;;;;;;5071844;28;20025;-85
2021/07/07 07:38:04;;;;;;;1.13;0.80;;;22.40;99.90;;;;;;5064324;28;20033;-86
2021/07/07 07:40:35;;;;;;;1.58;1.23;;;22.80;99.90;;;;;;5082090;28;20024;-86
2021/07/07 07:43:06;;;;;;;2.00;1.20;;;22.90;99.90;;;;;;5075581;28;20032;-85
2021/07/07 07:45:32;;;;;;;1.10;0.90;;;23.00;99.90;;;;;;5074459;28;20086;-85
2021/07/07 07:47:57;;;;;;;;;;;23.40;99.90;;;;;;5074804;28;20302;-86
2021/07/07 07:50:23;;;;;;;;;;;23.40;99.90;;;;;;5073828;28;19950;-86
2021/07/07 07:52:49;;;;;;;;;;;23.50;99.90;;;;;;5074254;28;19912;-86
2021/07/07 07:55:14;;;;;;;;;;;23.70;99.90;;;;;;5073348;28;19904;-86
2021/07/07 07:57:40;;;;;;;;;;;23.70;99.90;;;;;;5074341;28;19916;-85
2021/07/07 08:00:06;;;;;;;;;;;23.90;99.90;;;;;;5073530;28;19915;-85
2021/07/07 08:02:32;;;;;;;;;;;23.50;99.90;;;;;;5073947;28;19918;-85
2021/07/07 08:04:57;;;;;;;;;;;23.40;99.90;;;;;;5074152;28;19904;-85
2021/07/07 08:07:26;;;;;;;;;;;23.70;99.90;;;;;;5074332;28;19904;-86
2021/07/07 08:09:52;;;;;;;;;;;23.90;99.90;;;;;;5074802;28;19908;-85
2021/07/07 08:12:17;;;;;;;;;;;24.10;99.90;;;;;;5073384;28;19915;-86
2021/07/07 08:14:43;;;;;;;;;;;24.10;99.90;;;;;;5073987;28;19911;-83
2021/07/07 08:17:08;;;;;;;;;;;24.10;99.90;;;;;;5074143;28;20332;-85
2021/07/07 08:19:34;;;;;;;;;;;24.40;99.90;;;;;;5075407;28;19904;-85
2021/07/07 08:21:59;;;;;;;;;;;24.60;99.90;;;;;;5073533;28;19911;-85
2021/07/07 08:24:25;;;;;;;;;;;24.40;99.90;;;;;;5075314;28;19905;-85
2021/07/07 08:26:50;;;;;;;;;;;24.10;99.90;;;;;;5074406;28;20334;-86
2021/07/07 08:29:16;;;;;;;;;;;24.20;99.90;;;;;;5068449;28;19915;-84
2021/07/07 08:31:41;;;;;;;;;;;24.00;99.90;;;;;;5070307;28;20426;-85
2021/07/07 08:34:07;;;;;;;;;;;24.30;99.90;;;;;;5070151;28;19905;-86
2021/07/07 08:36:32;;;;;;;;;;;24.00;99.90;;;;;;5069826;28;19994;-87
2021/07/07 08:38:57;;;;;;;;;;;23.90;99.90;;;;;;5071008;28;19912;-86
2021/07/07 08:41:23;;;;;;;;;;;24.20;99.90;;;;;;5070043;28;20232;-83
2021/07/07 08:43:49;;;;;;;;;;;24.60;99.90;;;;;;5069676;28;19905;-86
2021/07/07 08:46:14;;;;;;;;;;;24.20;99.90;;;;;;5068894;28;19908;-84
2021/07/07 08:48:40;;;;;;;;;;;24.40;99.90;;;;;;5052621;28;20367;-86
2021/07/07 08:51:07;;;;;;;;;;;24.60;99.90;;;;;;5064008;28;19908;-86
2021/07/07 08:53:33;;;;;;;;;;;24.50;99.90;;;;;;5073623;28;19908;-87
2021/07/07 08:55:58;;;;;;;;;;;24.50;99.90;;;;;;5074026;28;19958;-87
2021/07/07 08:58:24;;;;;;;;;;;24.50;99.90;;;;;;5072414;28;19990;-85
2021/07/07 09:00:50;;;;;;;;;;;24.60;99.90;;;;;;5073188;28;19904;-83
2021/07/07 09:03:18;;;;;;;;;;;24.60;99.90;;;;;;5072942;28;19918;-84
2021/07/07 09:05:57;;;;;;;;;;;24.50;99.90;;;;;;5071873;28;19912;-85
2021/07/07 09:08:22;;;;;;;;;;;24.40;99.90;;;;;;5070748;28;19909;-85
2021/07/07 09:10:47;;;;;;;;;;;24.40;99.90;;;;;;5062013;28;19920;-86
2021/07/07 09:13:13;;;;;;;;;;;24.50;99.90;;;;;;5053952;28;19912;-87
2021/07/07 09:15:39;;;;;;;;;;;24.70;99.90;;;;;;5053958;28;19905;-86
2021/07/07 09:18:05;;;;;;;;;;;24.70;99.90;;;;;;5052182;28;19904;-86
2021/07/07 09:20:37;;;;;;;;;;;24.50;99.90;;;;;;5053133;28;19905;-85
2021/07/07 09:23:13;;;;;;;;;;;24.90;99.90;;;;;;5052671;28;19909;-86
2021/07/07 09:25:49;;;;;;;;;;;25.30;99.90;;;;;;5055361;28;19905;-84
2021/07/07 09:28:16;;;;;;;;;;;24.70;99.90;;;;;;5053875;28;19908;-85
2021/07/07 09:30:41;;;;;;;;;;;24.60;99.90;;;;;;5053097;28;19958;-86
2021/07/07 09:33:09;;;;;;;;;;;24.70;99.90;;;;;;5054334;28;19904;-86
2021/07/07 09:35:34;;;;;;;;;;;24.80;99.90;;;;;;5055606;28;19953;-86
2021/07/07 09:38:04;;;;;;;;;;;24.90;99.90;;;;;;5072976;28;19999;-86
2021/07/07 09:40:30;;;;;;;;;;;24.90;99.90;;;;;;5071398;28;19904;-86
2021/07/07 09:42:55;;;;;;;;;;;25.20;99.90;;;;;;5077909;28;19954;-85
2021/07/07 09:45:24;;;;;;;;;;;25.60;99.90;;;;;;5078856;28;19928;-86
2021/07/07 09:47:50;;;;;;;;;;;25.50;99.90;;;;;;5075348;28;19912;-85
2021/07/07 09:50:16;;;;;;;;;;;25.40;99.90;;;;;;5065580;28;20318;-86
2021/07/07 09:52:42;;;;;;;;;;;25.30;99.90;;;;;;5063015;28;19908;-83
2021/07/07 09:55:09;;;;;;;;;;;25.60;99.90;;;;;;5064404;28;19927;-83
2021/07/07 09:57:44;;;;;;;;;;;25.60;99.90;;;;;;5058629;28;19992;-85
2021/07/07 10:00:22;;;;;;;;;;;25.60;99.90;;;;;;5063507;28;19930;-86
2021/07/07 10:02:52;;;;;;;;;;;26.20;99.90;;;;;;5082078;28;19908;-85
2021/07/07 10:05:18;;;;;;;;;;;26.70;99.90;;;;;;5061610;28;20419;-85
2021/07/07 10:07:45;;;;;;;;;;;26.80;99.90;;;;;;5073118;28;19912;-86
2021/07/07 10:10:11;;;;;;;;;;;26.50;99.90;;;;;;5064770;28;19904;-86
2021/07/07 10:12:37;;;;;;;;;;;26.10;99.90;;;;;;5066159;28;19905;-86
2021/07/07 10:15:02;;;;;;;;;;;26.00;99.90;;;;;;5072235;28;19954;-85
2021/07/07 10:17:28;;;;;;;;;;;26.00;99.90;;;;;;5070701;28;19905;-84
2021/07/07 10:19:53;;;;;;;;;;;26.00;99.90;;;;;;5065349;28;19956;-83
2021/07/07 10:22:20;;;;;;;;;;;25.90;99.90;;;;;;5074169;28;19996;-83
2021/07/07 10:24:46;;;;;;;;;;;25.90;99.90;;;;;;5067374;28;20406;-82
2021/07/07 10:27:11;;;;;;;0.93;0.53;;;25.80;99.90;;;;;;5071090;28;20015;-82
2021/07/07 10:29:37;;;;;;;3.57;1.20;;;25.70;99.90;;;;;;5074480;28;20051;-83
2021/07/07 10:32:05;;;;;;;3.73;0.67;;;25.90;99.90;;;;;;5068724;28;20021;-83
2021/07/07 10:34:31;;;;;;;2.75;0.95;;;26.00;99.90;;;;;;5063643;28;20293;-83
2021/07/07 10:36:59;;;;;;;3.43;0.93;;;26.30;99.90;;;;;;5070909;28;20391;-83
2021/07/07 10:39:25;;;;;;;2.22;1.00;;;26.50;99.90;;;;;;5067529;28;20441;-82
2021/07/07 10:41:59;;;;;;;1.35;0.88;;;26.60;99.90;;;;;;5068647;28;20035;-82
2021/07/07 10:44:24;;;;;;;3.97;0.65;;;26.40;99.90;;;;;;5068407;28;20074;-82
2021/07/07 10:47:00;;;;;;;1.67;0.53;;;26.10;99.90;;;;;;5075717;28;20025;-85
2021/07/07 10:49:53;;;;;;;2.45;0.98;;;26.20;99.90;;;;;;5057187;28;20031;-85
2021/07/07 10:52:34;;;;;;;2.35;0.80;;;26.40;99.90;;;;;;5055293;28;20063;-82
2021/07/07 10:55:02;;;;;;;3.63;0.68;;;26.40;99.90;;;;;;5063669;28;20013;-83
2021/07/07 10:57:37;;;;;;;1.60;0.60;;;26.20;99.90;;;;;;5064502;28;20043;-85
2021/07/07 11:00:35;;;;;;;2.05;0.85;;;26.20;99.90;;;;;;5064996;28;20025;-83
2021/07/07 11:03:36;;;;;;;3.50;0.77;;;26.50;99.90;;;;;;5062435;28;20891;-83
2021/07/07 11:06:21;;;;;;;2.65;0.90;;;26.80;99.90;;;;;;5071292;28;20017;-84
2021/07/07 11:08:48;;;;;;;3.30;0.70;;;26.90;99.90;;;;;;5065937;28;20503;-84
2021/07/07 11:11:25;;;;;;;2.25;0.93;;;27.10;99.90;;;;;;5068524;28;20499;-84
2021/07/07 11:13:52;;;;;;;2.67;0.77;;;27.20;99.90;;;;;;5055953;28;20055;-84
2021/07/07 11:16:23;;;;;;;6.55;1.10;;;27.10;99.90;;;;;;5056068;28;20059;-81
2021/07/07 11:18:52;;;;;;;2.30;0.80;;;27.10;99.90;;;;;;5059699;28;20123;-85
2021/07/07 11:21:19;;;;;;;1.33;0.70;;;27.30;99.90;;;;;;5066366;28;20028;-84
2021/07/07 11:23:45;;;;;;;;;;;27.30;99.90;;;;;;5062673;28;20025;-84
2021/07/07 11:26:11;;;;;;;2.38;0.77;;;27.20;99.90;;;;;;5066481;28;19911;-85
2021/07/07 11:28:37;;;;;;;3.15;1.25;;;27.20;99.90;;;;;;5065268;28;20025;-84
2021/07/07 11:31:03;;;;;;;3.30;1.03;;;27.30;99.90;;;;;;5062811;28;20046;-83
2021/07/07 11:33:29;;;;;;;1.75;0.68;;;27.30;99.90;;;;;;5069594;28;20029;-84
2021/07/07 11:35:55;;;;;;;1.33;0.67;;;27.10;99.90;;;;;;5070645;28;20020;-84
2021/07/07 11:38:26;;;;;;;1.42;0.60;;;26.90;99.90;;;;;;5080764;28;20503;-84
2021/07/07 11:40:54;;;;;;;2.20;1.20;;;26.90;99.90;;;;;;5077836;28;20037;-84
2021/07/07 11:43:32;;;;;;;1.23;1.02;;;27.00;99.90;;;;;;5063113;28;20450;-85
2021/07/07 11:46:08;;;;;;;;;;;27.10;99.90;;;;;;5078149;28;20104;-83
2021/07/07 11:48:37;;;;;;;;;;;26.70;99.90;;;;;;5061563;28;20331;-84
2021/07/07 11:51:14;;;;;;;;;;;26.80;99.90;;;;;;5064555;28;25148;-83
2021/07/07 11:53:41;;;;;;;;;;;27.10;99.90;;;;;;5062470;28;19935;-82
2021/07/07 11:56:20;;;;;;;;;;;27.10;99.90;;;;;;5062391;28;20368;-84
2021/07/07 11:58:46;;;;;;;;;;;27.10;99.90;;;;;;5078694;28;19974;-84
2021/07/07 12:01:18;;;;;;;;;;;27.10;99.90;;;;;;5072268;28;19912;-84
2021/07/07 12:03:56;;;;;;;;;;;27.10;99.90;;;;;;5073481;28;19952;-84
2021/07/07 12:06:47;;;;;;;;;;;27.30;99.90;;;;;;5076799;28;19915;-83
2021/07/07 12:09:17;;;;;;;;;;;27.60;99.90;;;;;;5075485;28;19944;-82
2021/07/07 12:12:03;;;;;;;;;;;27.80;99.90;;;;;;5073383;28;20276;-84
2021/07/07 12:14:29;;;;;;;;;;;27.50;99.90;;;;;;5073977;28;20313;-85
2021/07/07 12:16:55;;;;;;;;;;;27.40;99.90;;;;;;5067644;28;19961;-85
2021/07/07 12:19:21;;;;;;;;;;;27.50;99.90;;;;;;5067132;28;19948;-85
2021/07/07 12:21:54;;;;;;;;;;;27.70;99.90;;;;;;5057009;28;19909;-85
2021/07/07 12:24:27;;;;;;;;;;;27.80;99.90;;;;;;5056785;28;19912;-85
2021/07/07 12:26:57;;;;;;;;;;;27.50;99.90;;;;;;5074267;28;19904;-85
2021/07/07 12:29:24;;;;;;;;;;;27.40;99.90;;;;;;5094664;28;19908;-85
2021/07/07 12:31:51;;;;;;;;;;;27.60;99.90;;;;;;5096333;28;19904;-85
2021/07/07 12:34:17;;;;;;;;;;;27.20;99.90;;;;;;5095138;28;20363;-85
2021/07/07 12:36:44;;;;;;;;;;;27.40;99.90;;;;;;5095458;28;19904;-86
2021/07/07 12:39:18;;;;;;;;;;;27.60;99.90;;;;;;5079098;28;19955;-85
2021/07/07 12:41:46;;;;;;;;;;;27.80;99.90;;;;;;5088444;28;19915;-85
2021/07/07 12:44:12;;;;;;;;;;;27.70;99.90;;;;;;5079527;28;19979;-85
2021/07/07 12:46:50;;;;;;;;;;;27.80;99.90;;;;;;5079549;28;19904;-86
2021/07/07 12:49:22;;;;;;;;;;;27.90;99.90;;;;;;5079796;28;19919;-85
2021/07/07 12:51:51;;;;;;;;;;;27.70;99.90;;;;;;5074831;28;20296;-84
2021/07/07 12:54:17;;;;;;;;;;;27.80;99.90;;;;;;5072952;28;19904;-85
2021/07/07 12:56:59;;;;;;;;;;;27.60;99.90;;;;;;5074545;28;20367;-87
2021/07/07 12:59:25;;;;;;;;;;;27.70;99.90;;;;;;5075906;28;19904;-87
2021/07/07 13:02:07;;;;;;;;;;;27.80;99.90;;;;;;5074890;28;20325;-87
2021/07/07 13:04:33;;;;;;;;;;;27.90;99.90;;;;;;5074822;28;19905;-86
2021/07/07 13:07:04;;;;;;;;;;;27.80;99.90;;;;;;5074275;28;19908;-86
2021/07/07 13:09:29;;;;;;;;;;;27.80;99.90;;;;;;5073527;28;19909;-83
2021/07/07 13:12:00;;;;;;;;;;;27.90;99.90;;;;;;5072172;28;19904;-87
2021/07/07 13:14:26;;;;;;;;;;;27.90;99.90;;;;;;5054187;28;19931;-85
2021/07/07 13:16:52;;;;;;;;;;;27.90;99.90;;;;;;5052276;28;19909;-86
2021/07/07 13:19:22;;;;;;;;;;;27.90;99.70;;;;;;5053338;28;19943;-86
2021/07/07 13:21:49;;;;;;;;;;;27.90;99.90;;;;;;5054106;28;19905;-85
2021/07/07 13:24:18;;;;;;;;;;;27.90;99.90;;;;;;5051537;28;19940;-85
2021/07/07 13:26:47;;;;;;;;;;;28.00;99.90;;;;;;5052036;28;19905;-84
2021/07/07 13:29:15;;;;;;;;;;;28.10;99.80;;;;;;5050997;28;19909;-84
2021/07/07 13:31:41;;;;;;;;;;;28.00;99.80;;;;;;5051489;28;19954;-85
2021/07/07 13:34:06;;;;;;;;;;;28.00;98.70;;;;;;5050948;28;19904;-85
2021/07/07 13:36:35;;;;;;;;;;;27.80;99.90;;;;;;5051332;28;19908;-85
2021/07/07 13:39:10;;;;;;;;;;;28.00;99.90;;;;;;5051059;28;19919;-85
2021/07/07 13:41:37;;;;;;;;;;;27.90;99.90;;;;;;5051412;28;19961;-84
2021/07/07 13:44:03;;;;;;;;;;;27.40;99.90;;;;;;5052532;28;20374;-84
2021/07/07 13:46:28;;;;;;;;;;;26.50;99.90;;;;;;5051012;28;19905;-84
2021/07/07 13:48:54;;;;;;;;;;;25.70;99.90;;;;;;5051154;28;19953;-87
2021/07/07 13:51:19;;;;;;;;;;;25.70;99.90;;;;;;5050856;28;19905;-85
2021/07/07 13:53:44;;;;;;;;;;;26.40;99.90;;;;;;5051045;28;19912;-85
2021/07/07 13:56:13;;;;;;;;;;;26.70;99.90;;;;;;5054982;28;20364;-87
2021/07/07 13:58:39;;;;;;;;;;;26.80;99.90;;;;;;5055101;28;19905;-86
2021/07/07 14:01:04;;;;;;;;;;;27.00;99.90;;;;;;5054577;28;19911;-88
2021/07/07 14:03:29;;;;;;;;;;;26.90;99.90;;;;;;5054233;28;19936;-86
2021/07/07 14:05:57;;;;;;;;;;;26.80;99.90;;;;;;5054402;28;19904;-85
2021/07/07 14:08:22;;;;;;;;;;;27.00;99.90;;;;;;5054539;28;19962;-84
2021/07/07 14:10:49;;;;;;;;;;;27.00;99.90;;;;;;5054534;28;19913;-84
2021/07/07 14:13:14;;;;;;;;;;;26.70;99.90;;;;;;5054143;28;19905;-85
2021/07/07 14:15:40;;;;;;;;;;;27.10;99.90;;;;;;5054570;28;19911;-84
2021/07/07 14:18:05;;;;;;;;;;;27.30;99.90;;;;;;5071766;28;20004;-83
2021/07/07 14:20:31;;;;;;;;;;;27.30;99.90;;;;;;5054104;28;19908;-84
2021/07/07 14:22:57;;;;;;;;;;;27.50;99.90;;;;;;5070456;28;20403;-85
2021/07/07 14:25:23;;;;;;;;;;;27.60;99.90;;;;;;5054202;28;19916;-85
2021/07/07 14:27:48;;;;;;;;;;;27.70;99.90;;;;;;5053998;28;19958;-85
2021/07/07 14:30:14;;;;;;;;;;;27.80;99.20;;;;;;5070672;28;20325;-86
2021/07/07 14:32:39;;;;;;;;;;;27.70;99.90;;;;;;5066550;28;20331;-84
2021/07/07 14:35:05;;;;;;;;;;;27.90;99.90;;;;;;5058719;28;20391;-85
2021/07/07 14:37:31;;;;;;;;;;;28.20;99.40;;;;;;5057562;28;19920;-84
2021/07/07 14:39:56;;;;;;;;;;;28.40;99.90;;;;;;5054264;28;19908;-85
2021/07/07 14:42:21;;;;;;;;;;;28.30;99.90;;;;;;5069996;28;19909;-84
2021/07/07 14:44:47;;;;;;;;;;;28.30;99.70;;;;;;5070339;28;19916;-85
2021/07/07 14:47:12;;;;;;;;;;;28.20;97.70;;;;;;5053772;28;19904;-88
2021/07/07 14:49:38;;;;;;;;;;;28.20;99.60;;;;;;5069648;28;19919;-84
2021/07/07 14:52:03;;;;;;;;;;;28.00;97.60;;;;;;5053524;28;19904;-85
2021/07/07 14:54:29;;;;;;;;;;;28.00;99.20;;;;;;5054883;28;19999;-86
2021/07/07 14:56:54;;;;;;;;;;;27.90;99.80;;;;;;5058961;28;20275;-85
2021/07/07 14:59:20;;;;;;;;;;;28.00;98.80;;;;;;5068925;28;19908;-86
2021/07/07 15:01:45;;;;;;;;;;;27.90;99.90;;;;;;5065469;28;19908;-85
2021/07/07 15:04:11;;;;;;;;;;;27.90;99.10;;;;;;5062601;28;20364;-85
2021/07/07 15:06:36;;;;;;;;;;;28.10;99.80;;;;;;5064453;28;19927;-86
2021/07/07 15:09:02;;;;;;;;;;;28.00;98.80;;;;;;5061608;28;20237;-86
2021/07/07 15:11:28;;;;;;;;;;;27.90;96.30;;;;;;5062943;28;20287;-86
2021/07/07 15:13:53;;;;;;;;;;;27.80;96.20;;;;;;5062468;28;19938;-85
2021/07/07 15:16:19;;;;;;;;;;;27.70;95.00;;;;;;5073036;28;19911;-86
2021/07/07 15:18:45;;;;;;;;;;;27.80;97.00;;;;;;5064754;28;19911;-86
2021/07/07 15:21:10;;;;;;;;;;;27.90;94.40;;;;;;5065688;28;19905;-87
2021/07/07 15:23:36;;;;;;;;;;;27.90;94.20;;;;;;5065954;28;19911;-86
2021/07/07 15:26:01;;;;;;;;;;;27.90;95.30;;;;;;5074384;28;19931;-85
2021/07/07 15:28:27;;;;;;;;;;;27.90;95.10;;;;;;5066419;28;19948;-86
2021/07/07 15:30:52;;;;;;;;;;;27.80;96.10;;;;;;5062934;28;19904;-87
2021/07/07 15:33:18;;;;;;;;;;;27.90;95.40;;;;;;5063290;28;19905;-85
2021/07/07 15:35:43;;;;;;;;;;;27.50;96.60;;;;;;5070769;28;20356;-85
2021/07/07 15:38:09;;;;;;;;;;;26.80;96.70;;;;;;5061149;28;19908;-86
2021/07/07 15:40:34;;;;;;;;;;;26.60;98.10;;;;;;5074674;28;19975;-87
2021/07/07 15:43:00;;;;;;;;;;;26.60;99.40;;;;;;5071739;28;20050;-88
2021/07/07 15:45:25;;;;;;;;;;;26.60;98.00;;;;;;5070820;28;19909;-85
2021/07/07 15:47:51;;;;;;;;;;;26.30;99.00;;;;;;5057015;28;20312;-88
2021/07/07 15:50:17;;;;;;;;;;;25.90;99.50;;;;;;5062348;28;19958;-86
2021/07/07 15:52:42;;;;;;;;;;;25.50;99.90;;;;;;5066980;28;20452;-86
2021/07/07 15:55:08;;;;;;;;;;;25.30;99.90;;;;;;5056999;28;19905;-85
2021/07/07 15:57:39;;;;;;;;;;;25.70;99.90;;;;;;5057130;28;19915;-87
2021/07/07 16:00:12;;;;;;;;;;;26.40;99.90;;;;;;5057516;28;19905;-86
2021/07/07 16:02:38;;;;;;;;;;;26.80;98.90;;;;;;5058538;28;19905;-86
2021/07/07 16:05:04;;;;;;;;;;;27.20;99.70;;;;;;5058716;28;19905;-86
2021/07/07 16:07:29;;;;;;;;;;;27.40;97.50;;;;;;5057936;28;20279;-86
2021/07/07 16:09:55;;;;;;;;;;;27.50;97.60;;;;;;5058293;28;19909;-85
2021/07/07 16:12:20;;;;;;;;;;;27.70;98.30;;;;;;5058847;28;19911;-86
2021/07/07 16:14:46;;;;;;;;;;;27.80;97.40;;;;;;5060026;28;19936;-86
2021/07/07 16:17:12;;;;;;;;;;;27.60;97.40;;;;;;5057585;28;19917;-86
2021/07/07 16:19:38;;;;;;;;;;;27.40;98.10;;;;;;5053453;28;19905;-85
2021/07/07 16:22:04;;;;;;;;;;;27.50;97.20;;;;;;5052234;28;19931;-87
2021/07/07 16:24:29;;;;;;;;;;;27.30;97.10;;;;;;5053194;28;19905;-86
2021/07/07 16:26:55;;;;;;;;;;;27.20;99.00;;;;;;5052087;28;19905;-84
2021/07/07 16:29:20;;;;;;;;;;;27.20;97.70;;;;;;5052959;28;20327;-86
2021/07/07 16:31:45;;;;;;;;;;;27.10;97.00;;;;;;5067843;28;19911;-86
2021/07/07 16:34:11;;;;;;;;;;;27.00;97.80;;;;;;5064122;28;19995;-85
2021/07/07 16:36:36;;;;;;;;;;;26.90;97.50;;;;;;5062790;28;19924;-86
2021/07/07 16:39:03;;;;;;;;;;;26.90;96.20;;;;;;5059403;28;19920;-87
2021/07/07 16:41:28;;;;;;;;;;;26.80;94.40;;;;;;5060014;28;19927;-86
2021/07/07 16:43:54;;;;;;;;;;;26.70;94.70;;;;;;5059204;28;20367;-86
2021/07/07 16:46:20;;;;;;;;;;;26.70;95.80;;;;;;5055925;28;19904;-86
2021/07/07 16:48:45;;;;;;;;;;;26.60;96.90;;;;;;5063853;28;20003;-88
2021/07/07 16:51:11;;;;;;;;;;;26.60;96.40;;;;;;5072381;28;19936;-86
2021/07/07 16:53:36;;;;;;;;;;;26.60;96.50;;;;;;5071434;28;20321;-85
2021/07/07 16:56:02;;;;;;;;;;;26.80;96.20;;;;;;5073370;28;20010;-85
2021/07/07 16:58:27;;;;;;;;;;;26.60;95.60;;;;;;5072103;28;19929;-85
2021/07/07 17:00:52;;;;;;;;;;;26.40;96.40;;;;;;5072683;28;19995;-85
2021/07/07 17:03:18;;;;;;;;;;;26.30;98.50;;;;;;5071304;28;19905;-85
2021/07/07 17:05:45;;;;;;;;;;;26.20;97.40;;;;;;5071790;28;20035;-84
2021/07/07 17:08:10;;;;;;;;;;;26.10;97.60;;;;;;5073444;28;20275;-85
2021/07/07 17:10:36;;;;;;;;;;;26.10;98.20;;;;;;5071282;28;19908;-86
2021/07/07 17:13:02;;;;;;;;;;;26.10;98.60;;;;;;5071647;28;19930;-85
2021/07/07 17:15:27;;;;;;;;;;;26.00;98.00;;;;;;5074258;28;20224;-85
2021/07/07 17:17:53;;;;;;;;;;;26.00;99.20;;;;;;5061165;28;19908;-85
2021/07/07 17:20:18;;;;;;;;;;;26.00;98.60;;;;;;5053149;28;20388;-84
2021/07/07 17:22:44;;;;;;;;;;;25.90;98.70;;;;;;5050971;28;20412;-84
2021/07/07 17:25:10;;;;;;;;;;;26.00;98.60;;;;;;5063023;28;20021;-85
2021/07/07 17:27:36;;;;;;;;;;;25.90;98.60;;;;;;5071161;28;19905;-85
2021/07/07 17:30:02;;;;;;;;;;;25.90;99.50;;;;;;5066538;28;19917;-85
2021/07/07 17:32:28;;;;;;;;;;;25.90;99.30;;;;;;5050789;28;19905;-85
2021/07/07 17:34:53;;;;;;;;;;;25.80;99.90;;;;;;5050914;28;20534;-84
2021/07/07 17:37:19;;;;;;;;;;;25.60;99.90;;;;;;5058924;28;19908;-84
2021/07/07 17:39:44;;;;;;;;;;;25.60;99.90;;;;;;5070816;28;19912;-85
2021/07/07 17:42:10;;;;;;;;;;;25.60;99.90;;;;;;5068137;28;19916;-85
2021/07/07 17:44:35;;;;;;;;;;;25.40;99.90;;;;;;5052193;28;19911;-86
2021/07/07 17:47:01;;;;;;;;;;;25.30;99.90;;;;;;5051246;28;19905;-85
2021/07/07 17:49:26;;;;;;;;;;;25.20;99.90;;;;;;5050921;28;19909;-85
2021/07/07 17:51:52;;;;;;;;;;;25.10;99.90;;;;;;5050760;28;20378;-85
2021/07/07 17:54:18;;;;;;;;;;;25.00;99.90;;;;;;5050902;28;19912;-84
2021/07/07 17:56:43;;;;;;;;;;;24.90;99.90;;;;;;5050796;28;19905;-85
2021/07/07 17:59:09;;;;;;;;;;;24.90;99.90;;;;;;5051155;28;19911;-84
2021/07/07 18:01:34;;;;;;;;;;;24.60;99.90;;;;;;5051027;28;19948;-84
2021/07/07 18:04:00;;;;;;;;;;;24.50;99.90;;;;;;5050971;28;19905;-85
2021/07/07 18:06:26;;;;;;;;;;;24.30;99.90;;;;;;5051514;28;20306;-85
2021/07/07 18:08:51;;;;;;;;;;;24.20;99.90;;;;;;5051540;28;19920;-85
2021/07/07 18:11:17;;;;;;;;;;;23.90;99.90;;;;;;5050890;28;19957;-85
2021/07/07 18:13:42;;;;;;;;;;;23.70;99.90;;;;;;5050536;28;19912;-85
2021/07/07 18:16:07;;;;;;;;;;;23.60;99.90;;;;;;5050647;28;19908;-85
2021/07/07 18:18:33;;;;;;;;;;;23.50;99.90;;;;;;5050731;28;19905;-85
2021/07/07 18:20:59;;;;;;;;;;;23.30;99.90;;;;;;5050582;28;19905;-84
2021/07/07 18:23:24;;;;;;;;;;;23.20;99.90;;;;;;5050267;28;19905;-85
2021/07/07 18:25:50;;;;;;;;;;;23.10;99.90;;;;;;5050379;28;19927;-84
2021/07/07 18:28:19;;;;;;;;;;;23.10;99.90;;;;;;5051703;28;19952;-85
2021/07/07 18:30:45;;;;;;;;;;;22.90;99.90;;;;;;5050528;28;19987;-85
2021/07/07 18:33:11;;;;;;;;;;;22.70;99.90;;;;;;5050131;28;19911;-85
2021/07/07 18:35:36;;;;;;;;;;;22.70;99.90;;;;;;5051546;28;19999;-85
2021/07/07 18:38:02;;;;;;;;;;;22.50;99.90;;;;;;5064469;28;19969;-85
2021/07/07 18:40:28;;;;;;;;;;;22.50;99.90;;;;;;5065854;28;19915;-85
2021/07/07 18:42:54;;;;;;;;;;;22.70;99.90;;;;;;5069946;28;19905;-86
2021/07/07 18:45:19;;;;;;;;;;;22.70;99.90;;;;;;5070095;28;19905;-84
2021/07/07 18:47:45;;;;;;;;;;;22.70;99.90;;;;;;5052755;28;19938;-85
2021/07/07 18:50:11;;;;;;;;;;;22.70;99.90;;;;;;5053841;28;19939;-85
2021/07/07 18:52:37;;;;;;;;;;;22.70;99.90;;;;;;5063654;28;19912;-86
2021/07/07 18:55:02;;;;;;;;;;;22.50;99.90;;;;;;5069977;28;19916;-85
2021/07/07 18:57:29;;;;;;;;;;;22.50;99.90;;;;;;5068791;28;19909;-85
2021/07/07 18:59:55;;;;;;;;;;;22.40;99.90;;;;;;5053862;28;20277;-85
2021/07/07 19:02:20;;;;;;;;;;;22.40;99.90;;;;;;5053556;28;19904;-86
2021/07/07 19:04:46;;;;;;;;;;;22.30;99.90;;;;;;5072695;28;20360;-85
2021/07/07 19:07:11;;;;;;;;;;;22.20;99.90;;;;;;5066880;28;19952;-85
2021/07/07 19:09:38;;;;;;;;;;;22.20;99.90;;;;;;5074739;28;20352;-84
2021/07/07 19:12:05;;;;;;;;;;;22.20;99.90;;;;;;5064039;28;19905;-85
2021/07/07 19:14:30;;;;;;;;;;;22.10;99.90;;;;;;5062717;28;20368;-85
2021/07/07 19:16:55;;;;;;;;;;;22.00;99.90;;;;;;5061735;28;19923;-85
2021/07/07 19:19:21;;;;;;;;;;;22.00;99.90;;;;;;5064459;28;19904;-85
2021/07/07 19:21:46;;;;;;;;;;;21.90;99.90;;;;;;5067986;28;19908;-86
2021/07/07 19:24:12;;;;;;;;;;;21.80;99.90;;;;;;5064031;28;19924;-85
2021/07/07 19:26:38;;;;;;;;;;;21.70;99.90;;;;;;5071529;28;19904;-85
2021/07/07 19:29:04;;;;;;;;;;;21.60;99.90;;;;;;5067332;28;19908;-85
2021/07/07 19:31:30;;;;;;;;;;;21.60;99.90;;;;;;5065205;28;19916;-85
2021/07/07 19:33:56;;;;;;;;;;;21.60;99.90;;;;;;5062107;28;19913;-85
2021/07/07 19:36:21;;;;;;;;;;;21.40;99.90;;;;;;5079751;28;20398;-85
2021/07/07 19:38:47;;;;;;;;;;;21.40;99.90;;;;;;5080264;28;19960;-85
2021/07/07 19:41:12;;;;;;;;;;;21.30;99.90;;;;;;5063553;28;19909;-85
2021/07/07 19:43:37;;;;;;;;;;;21.30;99.90;;;;;;5062570;28;20375;-86
2021/07/07 19:46:04;;;;;;;;;;;21.20;99.90;;;;;;5065630;28;19930;-86
2021/07/07 19:48:29;;;;;;;;;;;21.00;99.90;;;;;;5066563;28;19912;-85
2021/07/07 19:50:55;;;;;;;;;;;21.00;99.90;;;;;;5072627;28;19954;-85
2021/07/07 19:53:21;;;;;;;;;;;20.90;99.90;;;;;;5075666;28;19904;-86
2021/07/07 19:55:46;;;;;;;;;;;20.70;99.90;;;;;;5072053;28;19905;-85
2021/07/07 19:58:12;;;;;;;;;;;20.60;99.90;;;;;;5066560;28;19980;-86
2021/07/07 20:00:37;;;;;;;;;;;20.50;99.90;;;;;;5081974;28;19911;-86
2021/07/07 20:03:03;;;;;;;;;;;20.50;99.90;;;;;;5071429;28;19911;-85
2021/07/07 20:05:29;;;;;;;;;;;20.40;99.90;;;;;;5072885;28;19908;-85
2021/07/07 20:07:54;;;;;;;;;;;20.30;99.90;;;;;;5070696;28;19991;-85
2021/07/07 20:10:21;;;;;;;;;;;20.30;99.90;;;;;;5066206;28;19916;-86
2021/07/07 20:12:48;;;;;;;;;;;20.20;99.90;;;;;;5066246;28;19905;-86
2021/07/07 20:15:14;;;;;;;;;;;20.10;99.90;;;;;;5071207;28;19905;-86
2021/07/07 20:17:40;;;;;;;;;;;20.10;99.90;;;;;;5058697;28;19905;-89
2021/07/07 20:20:06;;;;;;;;;;;20.00;99.90;;;;;;5071600;28;19908;-87
2021/07/07 20:22:32;;;;;;;;;;;19.90;99.90;;;;;;5074549;28;20358;-85
2021/07/07 20:24:57;;;;;;;;;;;19.90;99.90;;;;;;5079837;28;19913;-84
2021/07/07 20:27:25;;;;;;;;;;;19.90;99.90;;;;;;5073263;28;19908;-86
2021/07/07 20:29:50;;;;;;;;;;;19.90;99.90;;;;;;5064414;28;19944;-86
2021/07/07 20:32:16;;;;;;;;;;;20.00;99.90;;;;;;5062035;28;20124;-85
2021/07/07 20:34:42;;;;;;;;;;;20.00;99.90;;;;;;5069378;28;20356;-87
2021/07/07 20:37:08;;;;;;;;;;;20.00;99.90;;;;;;5066832;28;19953;-85
2021/07/07 20:39:33;;;;;;;;;;;20.00;99.90;;;;;;5067525;28;20394;-85
2021/07/07 20:41:59;;;;;;;;;;;20.00;99.90;;;;;;5051784;28;19987;-86